createdAt,value
2023-10-09T00:02:27.833Z,99415.25
2023-10-09T00:05:24.216Z,99408.53
2023-10-09T00:08:10.627Z,99411.25
2023-10-09T00:10:56.274Z,99409.28
2023-10-09T00:13:51.150Z,99405.66
2023-10-09T00:16:37.768Z,99399.28
2023-10-09T00:19:32.653Z,99394.09
2023-10-09T00:22:28.102Z,99387.75
2023-10-09T00:25:14.017Z,99371.03
2023-10-09T00:28:00.838Z,99367.09
2023-10-09T00:30:46.473Z,99363.09
2023-10-09T00:33:31.708Z,99363.84
2023-10-09T00:36:20.985Z,99349.56
2023-10-09T00:39:14.534Z,99334.06
2023-10-09T00:42:02.279Z,99314.22
2023-10-09T00:44:49.784Z,99289.56
2023-10-09T00:47:35.834Z,99281.59
2023-10-09T00:50:21.559Z,99286.75
2023-10-09T00:53:13.638Z,99286.34
2023-10-09T00:56:12.453Z,99276.00
2023-10-09T00:59:10.036Z,99281.16
2023-10-09T01:02:06.119Z,99273.59
2023-10-09T01:04:51.654Z,99274.34
2023-10-09T01:07:41.138Z,99289.00
2023-10-09T01:10:34.251Z,99277.88
2023-10-09T01:13:19.598Z,99276.25
2023-10-09T01:16:06.722Z,99279.41
2023-10-09T01:18:54.609Z,99284.97
2023-10-09T01:21:43.652Z,99278.19
2023-10-09T01:24:32.870Z,99273.81
2023-10-09T01:27:18.455Z,99257.16
2023-10-09T01:30:04.141Z,99262.69
2023-10-09T01:32:49.826Z,99251.97
2023-10-09T01:35:35.108Z,99226.97
2023-10-09T01:38:31.311Z,99227.75
2023-10-09T01:41:21.185Z,99226.97
2023-10-09T01:44:11.405Z,99222.97
2023-10-09T01:46:59.200Z,99225.75
2023-10-09T01:49:44.903Z,99231.25
2023-10-09T01:52:31.276Z,99226.47
2023-10-09T01:55:34.929Z,99225.63
2023-10-09T01:58:23.049Z,99218.88
2023-10-09T02:01:08.753Z,99216.88
2023-10-09T02:03:55.596Z,99198.97
2023-10-09T02:06:41.265Z,99183.13
2023-10-09T02:09:32.576Z,99172.00
2023-10-09T02:12:19.067Z,99175.97
2023-10-09T02:15:16.808Z,99162.47
2023-10-09T02:18:17.405Z,99152.56
2023-10-09T02:21:03.314Z,99151.34
2023-10-09T02:23:51.895Z,99127.56
2023-10-09T02:26:40.182Z,99138.69
2023-10-09T02:29:25.946Z,99141.78
2023-10-09T02:32:26.776Z,99134.25
2023-10-09T02:35:32.471Z,99129.50
2023-10-09T02:38:18.722Z,99109.25
2023-10-09T02:41:04.422Z,99108.47
2023-10-09T02:43:56.345Z,99096.94
2023-10-09T02:46:41.950Z,99094.94
2023-10-09T02:49:28.199Z,99090.97
2023-10-09T02:52:18.242Z,99081.41
2023-10-09T02:55:09.202Z,99077.06
2023-10-09T02:58:06.429Z,99068.72
2023-10-09T03:00:52.849Z,99052.06
2023-10-09T03:03:39.628Z,99032.63
2023-10-09T03:06:29.794Z,99031.41
2023-10-09T03:09:18.060Z,99038.53
2023-10-09T03:12:06.024Z,99026.19
2023-10-09T03:14:51.927Z,99023.44
2023-10-09T03:17:37.633Z,99015.09
2023-10-09T03:20:22.855Z,99011.13
2023-10-09T03:23:08.992Z,99006.75
2023-10-09T03:25:59.150Z,99001.19
2023-10-09T03:28:50.761Z,98998.06
2023-10-09T03:31:37.732Z,98984.97
2023-10-09T03:34:24.937Z,98978.19
2023-10-09T03:37:23.396Z,98967.88
2023-10-09T03:40:09.910Z,98961.13
2023-10-09T03:42:55.600Z,98956.41
2023-10-09T03:45:53.740Z,98962.31
2023-10-09T03:48:39.120Z,98966.66
2023-10-09T03:51:24.857Z,98971.78
2023-10-09T03:54:10.431Z,98977.69
2023-10-09T03:57:00.059Z,98969.34
2023-10-09T03:59:48.230Z,98980.03
2023-10-09T04:02:33.789Z,98977.25
2023-10-09T04:05:19.287Z,98973.72
2023-10-09T04:08:13.362Z,98965.38
2023-10-09T04:11:05.500Z,98962.25
2023-10-09T04:13:53.390Z,98971.34
2023-10-09T04:16:53.089Z,98978.13
2023-10-09T04:19:49.300Z,98978.47
2023-10-09T04:22:40.186Z,98983.69
2023-10-09T04:25:30.731Z,98984.47
2023-10-09T04:28:16.177Z,98983.69
2023-10-09T04:31:07.385Z,98975.78
2023-10-09T04:33:56.423Z,98978.91
2023-10-09T04:36:47.809Z,98964.66
2023-10-09T04:39:33.426Z,98969.88
2023-10-09T04:42:37.381Z,98962.66
2023-10-09T04:45:42.862Z,98960.25
2023-10-09T04:48:34.416Z,98955.91
2023-10-09T04:51:23.276Z,98958.25
2023-10-09T04:54:14.552Z,98944.81
2023-10-09T04:57:01.101Z,98935.59
2023-10-09T04:59:48.495Z,98922.13
2023-10-09T05:02:38.281Z,98927.25
2023-10-09T05:05:43.402Z,98916.56
2023-10-09T05:08:29.233Z,98901.91
2023-10-09T05:11:33.191Z,98911.00
2023-10-09T05:14:20.820Z,98901.13
2023-10-09T05:17:10.372Z,98898.78
2023-10-09T05:20:18.512Z,98894.78
2023-10-09T05:23:24.619Z,98898.78
2023-10-09T05:26:30.106Z,98883.69
2023-10-09T05:29:33.671Z,98886.00
2023-10-09T05:32:29.193Z,98895.13
2023-10-09T05:35:21.091Z,98896.34
2023-10-09T05:38:16.266Z,98882.47
2023-10-09T05:41:21.685Z,98896.34
2023-10-09T05:44:25.399Z,98885.22
2023-10-09T05:47:28.765Z,98881.22
2023-10-09T05:50:15.077Z,98883.69
2023-10-09T05:53:03.060Z,98899.47
2023-10-09T05:56:06.685Z,98896.34
2023-10-09T05:59:15.006Z,98893.91
2023-10-09T06:02:00.744Z,98910.59
2023-10-09T06:04:55.456Z,98905.91
2023-10-09T06:08:01.157Z,98910.66
2023-10-09T06:10:48.716Z,98913.00
2023-10-09T06:13:42.187Z,98907.09
2023-10-09T06:16:43.090Z,98907.97
2023-10-09T06:19:33.065Z,98909.19
2023-10-09T06:22:36.923Z,98908.81
2023-10-09T06:25:34.177Z,98891.81
2023-10-09T06:28:20.802Z,98886.59
2023-10-09T06:31:25.941Z,98882.69
2023-10-09T06:34:16.604Z,98881.03
2023-10-09T06:37:28.940Z,98890.19
2023-10-09T06:40:32.855Z,98890.19
2023-10-09T06:43:22.627Z,98887.41
2023-10-09T06:46:23.114Z,98876.66
2023-10-09T06:49:28.590Z,98882.97
2023-10-09T06:52:17.036Z,98882.97
2023-10-09T06:55:10.641Z,98878.97
2023-10-09T06:57:55.820Z,98895.63
2023-10-09T07:01:02.066Z,98895.22
2023-10-09T07:03:53.760Z,98906.69
2023-10-09T07:06:39.526Z,98896.34
2023-10-09T07:09:28.624Z,98902.25
2023-10-09T07:12:27.442Z,98905.75
2023-10-09T07:15:12.887Z,98915.97
2023-10-09T07:18:18.376Z,98915.19
2023-10-09T07:21:12.455Z,98914.44
2023-10-09T07:24:05.699Z,98910.06
2023-10-09T07:26:54.156Z,98915.13
2023-10-09T07:29:49.050Z,98925.91
2023-10-09T07:32:36.605Z,98927.09
2023-10-09T07:35:41.868Z,98927.50
2023-10-09T07:38:36.860Z,98933.06
2023-10-09T07:41:22.193Z,98936.31
2023-10-09T07:44:20.352Z,98948.63
2023-10-09T07:47:26.898Z,98945.84
2023-10-09T07:50:22.546Z,98945.47
2023-10-09T07:53:27.823Z,98957.41
2023-10-09T07:56:19.618Z,98955.81
2023-10-09T07:59:11.803Z,98966.16
2023-10-09T08:02:00.412Z,98965.38
2023-10-09T08:04:54.535Z,98963.78
2023-10-09T08:08:08.442Z,98971.78
2023-10-09T08:11:17.819Z,98974.91
2023-10-09T08:14:03.904Z,98966.56
2023-10-09T08:17:07.004Z,98976.03
2023-10-09T08:19:55.683Z,98974.50
2023-10-09T08:22:44.891Z,98965.38
2023-10-09T08:25:33.468Z,98960.59
2023-10-09T08:28:37.373Z,98964.56
2023-10-09T08:31:48.828Z,98954.34
2023-10-09T08:37:38.582Z,98977.78
2023-10-09T08:40:34.465Z,98998.06
2023-10-09T08:43:21.223Z,99006.84
2023-10-09T08:46:07.203Z,98985.75
2023-10-09T08:48:52.463Z,98974.66
2023-10-09T08:51:39.042Z,98980.56
2023-10-09T08:54:25.094Z,98975.00
2023-10-09T08:57:11.224Z,98981.69
2023-10-09T08:59:58.095Z,98984.13
2023-10-09T09:02:44.396Z,98980.09
2023-10-09T09:05:30.075Z,98985.31
2023-10-09T09:08:31.722Z,98990.09
2023-10-09T09:11:21.225Z,98997.66
2023-10-09T09:14:19.861Z,98981.34
2023-10-09T09:17:12.311Z,98980.56
2023-10-09T09:19:58.781Z,98977.44
2023-10-09T09:22:57.474Z,98988.09
2023-10-09T09:25:49.425Z,98990.88
2023-10-09T09:28:40.174Z,99002.44
2023-10-09T09:31:26.085Z,99001.19
2023-10-09T09:34:17.744Z,98996.88
2023-10-09T09:37:05.611Z,99002.06
2023-10-09T09:39:56.211Z,98985.41
2023-10-09T09:42:49.628Z,98992.50
2023-10-09T09:45:39.872Z,98985.41
2023-10-09T09:48:27.200Z,98994.94
2023-10-09T09:51:16.226Z,99000.47
2023-10-09T09:54:03.940Z,98992.59
2023-10-09T09:56:52.857Z,98996.94
2023-10-09T09:59:51.125Z,98991.78
2023-10-09T10:02:39.213Z,98991.78
2023-10-09T10:05:30.909Z,98989.47
2023-10-09T10:08:22.907Z,98986.34
2023-10-09T10:11:15.240Z,98986.75
2023-10-09T10:14:08.381Z,98986.41
2023-10-09T10:17:20.291Z,98982.41
2023-10-09T10:20:15.772Z,99003.06
2023-10-09T10:23:22.216Z,98988.41
2023-10-09T10:26:28.202Z,98982.91
2023-10-09T10:29:24.332Z,98978.50
2023-10-09T10:32:10.252Z,98969.72
2023-10-09T10:34:59.630Z,98967.31
2023-10-09T10:38:14.499Z,98968.53
2023-10-09T10:41:23.568Z,98967.66
2023-10-09T10:44:27.269Z,98969.25
2023-10-09T10:47:35.505Z,98973.94
2023-10-09T10:50:32.988Z,98973.50
2023-10-09T10:53:20.662Z,98966.31
2023-10-09T10:56:15.070Z,98963.09
2023-10-09T10:59:00.724Z,98948.78
2023-10-09T11:02:14.939Z,98945.56
2023-10-09T11:05:16.126Z,98943.56
2023-10-09T11:08:10.126Z,98942.69
2023-10-09T11:11:11.678Z,98941.88
2023-10-09T11:14:09.239Z,98932.66
2023-10-09T11:16:59.524Z,98934.59
2023-10-09T11:19:45.071Z,98927.81
2023-10-09T11:22:30.932Z,98914.69
2023-10-09T11:25:19.615Z,98920.59
2023-10-09T11:28:29.119Z,98922.19
2023-10-09T11:31:17.411Z,98916.63
2023-10-09T11:34:04.038Z,98913.38
2023-10-09T11:36:57.053Z,98920.59
2023-10-09T11:39:56.819Z,98910.25
2023-10-09T11:42:50.296Z,98926.16
2023-10-09T11:45:39.120Z,98926.56
2023-10-09T11:48:40.732Z,98926.94
2023-10-09T11:51:26.239Z,98931.72
2023-10-09T11:54:30.541Z,98921.81
2023-10-09T11:57:18.127Z,98921.72
2023-10-09T12:00:24.000Z,98910.59
2023-10-09T12:03:10.524Z,98907.81
2023-10-09T12:06:13.306Z,98917.81
2023-10-09T12:08:59.505Z,98917.03
2023-10-09T12:12:03.125Z,98915.81
2023-10-09T12:14:52.698Z,98913.13
2023-10-09T12:17:45.559Z,98911.56
2023-10-09T12:20:31.446Z,98920.34
2023-10-09T12:23:16.776Z,98915.97
2023-10-09T12:26:06.132Z,98926.31
2023-10-09T12:28:51.753Z,98930.28
2023-10-09T12:31:37.210Z,98927.97
2023-10-09T12:34:27.656Z,98920.06
2023-10-09T12:37:13.629Z,98924.84
2023-10-09T12:39:59.341Z,98918.06
2023-10-09T12:42:47.117Z,98918.50
2023-10-09T12:45:35.624Z,98917.69
2023-10-09T12:48:21.123Z,98921.69
2023-10-09T12:51:07.597Z,98919.69
2023-10-09T12:53:58.422Z,98913.38
2023-10-09T12:56:47.029Z,98917.69
2023-10-09T12:59:32.419Z,98916.56
2023-10-09T13:02:29.834Z,98917.03
2023-10-09T13:05:27.182Z,98922.56
2023-10-09T13:08:12.920Z,98912.66
2023-10-09T13:11:05.642Z,98909.09
2023-10-09T13:13:53.960Z,98910.31
2023-10-09T13:16:39.531Z,98909.53
2023-10-09T13:19:25.505Z,98900.06
2023-10-09T13:22:14.686Z,98898.94
2023-10-09T13:25:05.482Z,98901.34
2023-10-09T13:27:54.413Z,98901.34
2023-10-09T13:30:50.217Z,98898.66
2023-10-09T13:33:38.190Z,98896.31
2023-10-09T13:36:33.417Z,98890.41
2023-10-09T13:39:25.897Z,98882.50
2023-10-09T13:42:12.369Z,98893.53
2023-10-09T13:44:58.009Z,98892.06
2023-10-09T13:47:46.523Z,98901.53
2023-10-09T13:50:34.368Z,98890.47
2023-10-09T13:53:19.771Z,98900.81
2023-10-09T13:56:08.018Z,98910.69
2023-10-09T13:58:54.987Z,98902.38
2023-10-09T14:01:40.841Z,98903.16
2023-10-09T14:04:29.396Z,98906.72
2023-10-09T14:07:17.974Z,98900.41
2023-10-09T14:10:18.334Z,98897.63
2023-10-09T14:13:13.193Z,98899.94
2023-10-09T14:16:01.019Z,98905.50
2023-10-09T14:18:46.452Z,98908.72
2023-10-09T14:21:33.926Z,98896.81
2023-10-09T14:24:20.605Z,98901.59
2023-10-09T14:27:07.562Z,98898.03
2023-10-09T14:29:57.654Z,98904.09
2023-10-09T14:32:52.599Z,98898.19
2023-10-09T14:35:40.739Z,98906.94
2023-10-09T14:38:33.249Z,98909.00
2023-10-09T14:41:18.499Z,98909.47
2023-10-09T14:44:04.107Z,98910.22
2023-10-09T14:46:50.394Z,98915.84
2023-10-09T14:49:44.787Z,98907.53
2023-10-09T14:52:30.177Z,98904.38
2023-10-09T14:55:21.854Z,98913.94
2023-10-09T14:58:07.083Z,98906.13
2023-10-09T15:00:54.137Z,98900.56
2023-10-09T15:03:39.648Z,98899.75
2023-10-09T15:06:26.749Z,98901.00
2023-10-09T15:09:22.872Z,98912.09
2023-10-09T15:12:08.930Z,98914.09
2023-10-09T15:14:57.759Z,98911.31
2023-10-09T15:17:49.496Z,98906.19
2023-10-09T15:20:36.647Z,98909.72
2023-10-09T15:23:22.174Z,98909.38
2023-10-09T15:26:08.322Z,98916.94
2023-10-09T15:28:53.784Z,98916.94
2023-10-09T15:31:40.406Z,98924.84
2023-10-09T15:34:27.642Z,98924.84
2023-10-09T15:37:14.399Z,98925.19
2023-10-09T15:40:05.606Z,98927.97
2023-10-09T15:42:51.822Z,98935.44
2023-10-09T15:45:43.280Z,98929.09
2023-10-09T15:48:29.137Z,98935.78
2023-10-09T15:51:15.766Z,98940.13
2023-10-09T15:54:02.490Z,98938.84
2023-10-09T15:56:55.977Z,98934.44
2023-10-09T15:59:52.682Z,98938.25
2023-10-09T16:02:37.977Z,98933.06
2023-10-09T16:05:27.083Z,98931.78
2023-10-09T16:08:12.759Z,98945.25
2023-10-09T16:10:59.844Z,98940.81
2023-10-09T16:13:45.446Z,98950.28
2023-10-09T16:16:32.057Z,98945.09
2023-10-09T16:19:17.588Z,98951.41
2023-10-09T16:22:04.697Z,98951.78
2023-10-09T16:24:51.443Z,98951.34
2023-10-09T16:27:37.581Z,98951.34
2023-10-09T16:30:22.641Z,98960.41
2023-10-09T16:33:10.005Z,98962.75
2023-10-09T16:35:57.569Z,98960.31
2023-10-09T16:38:44.675Z,98963.44
2023-10-09T16:41:30.327Z,98964.56
2023-10-09T16:44:18.910Z,98963.38
2023-10-09T16:47:05.166Z,98967.28
2023-10-09T16:49:52.883Z,98972.41
2023-10-09T16:52:39.691Z,98966.88
2023-10-09T16:55:28.195Z,98961.31
2023-10-09T16:58:14.528Z,98968.78
2023-10-09T17:01:01.925Z,98965.22
2023-10-09T17:03:55.676Z,98962.78
2023-10-09T17:06:42.198Z,98967.56
2023-10-09T17:09:28.586Z,98966.78
2023-10-09T17:12:18.535Z,98973.13
2023-10-09T17:15:05.066Z,98978.69
2023-10-09T17:17:50.839Z,98984.25
2023-10-09T17:20:49.804Z,98977.47
2023-10-09T17:23:35.196Z,98985.38
2023-10-09T17:26:22.458Z,98976.25
2023-10-09T17:29:11.447Z,98982.16
2023-10-09T17:31:56.757Z,98983.03
2023-10-09T17:34:44.773Z,98983.03
2023-10-09T17:37:30.267Z,98989.81
2023-10-09T17:40:19.511Z,98981.47
2023-10-09T17:43:06.313Z,98987.44
2023-10-09T17:45:55.631Z,98982.66
2023-10-09T17:48:43.129Z,98991.00
2023-10-09T17:51:28.886Z,98992.94
2023-10-09T17:54:15.577Z,98990.16
2023-10-09T17:57:01.128Z,98992.94
2023-10-09T17:59:46.833Z,98993.72
2023-10-09T18:02:33.147Z,99005.59
2023-10-09T18:05:20.880Z,99005.59
2023-10-09T18:08:08.018Z,98996.84
2023-10-09T18:11:06.895Z,98997.63
2023-10-09T18:13:52.306Z,98990.84
2023-10-09T18:16:38.952Z,98992.84
2023-10-09T18:19:24.828Z,98994.84
2023-10-09T18:22:13.372Z,98995.63
2023-10-09T18:24:59.422Z,98990.47
2023-10-09T18:27:46.926Z,98988.94
2023-10-09T18:30:33.119Z,99002.41
2023-10-09T18:33:18.288Z,98994.06
2023-10-09T18:36:10.668Z,98993.25
2023-10-09T18:38:56.612Z,98995.25
2023-10-09T18:41:45.778Z,98994.50
2023-10-09T18:44:31.219Z,98995.72
2023-10-09T18:47:20.590Z,98996.91
2023-10-09T18:50:13.483Z,98996.91
2023-10-09T18:53:03.471Z,98998.50
2023-10-09T18:55:52.084Z,98995.72
2023-10-09T18:58:37.702Z,98996.13
2023-10-09T19:01:24.012Z,99000.91
2023-10-09T19:04:09.727Z,99002.13
2023-10-09T19:06:55.666Z,99001.69
2023-10-09T19:09:41.603Z,99012.03
2023-10-09T19:12:26.630Z,99007.66
2023-10-09T19:15:12.207Z,99004.88
2023-10-09T19:17:58.771Z,99008.09
2023-10-09T19:20:44.073Z,99012.88
2023-10-09T19:23:29.351Z,99012.97
2023-10-09T19:26:18.952Z,99012.16
2023-10-09T19:29:04.298Z,99011.03
2023-10-09T19:31:50.776Z,99002.78
2023-10-09T19:34:36.120Z,99007.97
2023-10-09T19:37:22.921Z,99013.97
2023-10-09T19:40:09.323Z,99011.19
2023-10-09T19:42:55.242Z,99007.25
2023-10-09T19:45:41.774Z,99008.91
2023-10-09T19:48:27.070Z,99007.78
2023-10-09T19:51:14.712Z,99010.97
2023-10-09T19:54:00.260Z,99009.41
2023-10-09T19:56:46.670Z,99017.41
2023-10-09T19:59:32.248Z,99017.81
2023-10-09T20:02:17.926Z,99021.78
2023-10-09T20:05:03.991Z,99023.00
2023-10-09T20:07:49.777Z,99029.78
2023-10-09T20:10:38.992Z,99030.97
2023-10-09T20:13:24.518Z,99027.84
2023-10-09T20:16:10.506Z,99028.25
2023-10-09T20:18:56.337Z,99028.72
2023-10-09T20:21:45.398Z,99029.53
2023-10-09T20:24:31.887Z,99030.41
2023-10-09T20:27:18.451Z,99032.81
2023-10-09T20:30:04.847Z,99038.00
2023-10-09T20:35:41.058Z,99031.72
2023-10-09T20:38:27.217Z,99043.28
2023-10-09T20:41:12.638Z,99047.69
2023-10-09T20:43:58.057Z,99058.44
2023-10-09T20:46:43.557Z,99056.06
2023-10-09T20:49:32.664Z,99056.50
2023-10-09T20:52:17.752Z,99062.50
2023-10-09T20:55:03.511Z,99065.25
2023-10-09T20:57:57.970Z,99063.31
2023-10-09T21:00:43.998Z,99068.09
2023-10-09T21:03:47.183Z,99076.81
2023-10-09T21:07:08.576Z,99066.56
2023-10-09T21:09:54.357Z,99084.00
2023-10-09T21:12:40.736Z,99080.06
2023-10-09T21:15:27.993Z,99079.28
2023-10-09T21:18:13.419Z,99080.13
2023-10-09T21:21:00.810Z,99080.13
2023-10-09T21:23:46.543Z,99086.88
2023-10-09T21:26:32.538Z,99085.34
2023-10-09T21:29:19.661Z,99089.28
2023-10-09T21:32:08.169Z,99092.06
2023-10-09T21:34:55.148Z,99092.06
2023-10-09T21:37:40.692Z,99101.97
2023-10-09T21:40:31.579Z,99098.00
2023-10-09T21:43:19.169Z,99097.56
2023-10-09T21:46:07.780Z,99098.34
2023-10-09T21:48:53.059Z,99095.56
2023-10-09T21:51:38.666Z,99103.91
2023-10-09T21:54:23.998Z,99105.47
2023-10-09T21:57:10.505Z,99107.03
2023-10-09T21:59:55.603Z,99109.81
2023-10-09T22:02:41.267Z,99099.91
2023-10-09T22:05:27.714Z,99097.94
2023-10-09T22:08:15.536Z,99099.91
2023-10-09T22:11:02.932Z,99109.44
2023-10-09T22:13:48.795Z,99110.22
2023-10-09T22:16:39.713Z,99103.13
2023-10-09T22:19:36.439Z,99102.31
2023-10-09T22:22:23.727Z,99103.91
2023-10-09T22:25:09.400Z,99110.22
2023-10-09T22:28:03.803Z,99110.66
2023-10-09T22:30:49.052Z,99112.66
2023-10-09T22:33:50.102Z,99110.31
2023-10-09T22:36:53.244Z,99105.53
2023-10-09T22:39:42.274Z,99101.19
2023-10-09T22:42:28.411Z,99107.53
2023-10-09T22:45:15.423Z,99111.91
2023-10-09T22:48:01.629Z,99117.06
2023-10-09T22:50:48.556Z,99111.91
2023-10-09T22:53:38.727Z,99117.91
2023-10-09T22:56:24.425Z,99111.13
2023-10-09T22:59:22.165Z,99114.31
2023-10-09T23:02:11.058Z,99106.81
2023-10-09T23:05:05.831Z,99111.22
2023-10-09T23:08:01.522Z,99111.22
2023-10-09T23:10:53.428Z,99112.41
2023-10-09T23:13:53.683Z,99115.16
2023-10-09T23:17:14.951Z,99110.03
2023-10-09T23:20:00.822Z,99123.91
2023-10-09T23:22:49.633Z,99127.91
2023-10-09T23:25:35.310Z,99123.13
2023-10-09T23:28:39.561Z,99127.13
2023-10-09T23:31:27.175Z,99131.88
2023-10-09T23:34:20.499Z,99131.09
2023-10-09T23:37:06.358Z,99130.31
2023-10-09T23:39:54.795Z,99137.41
2023-10-09T23:42:40.040Z,99122.41
2023-10-09T23:45:26.403Z,99131.53
2023-10-09T23:48:13.959Z,99135.84
2023-10-09T23:51:02.412Z,99132.72
2023-10-09T23:53:53.909Z,99139.84
2023-10-09T23:56:46.220Z,99140.63
2023-10-09T23:59:39.920Z,99139.84
